sensor_id;sensor_type;location;lat;lon;timestamp;temperature;humidity
4602;DHT22;2313;48.552;9.370;2022-07-12T00:01:36;15.30;99.90
4602;DHT22;2313;48.552;9.370;2022-07-12T00:04:02;15.10;99.90
4602;DHT22;2313;48.552;9.370;2022-07-12T00:06:28;15.00;99.90
4602;DHT22;2313;48.552;9.370;2022-07-12T00:08:53;15.10;99.90
4602;DHT22;2313;48.552;9.370;2022-07-12T00:11:19;14.90;99.90
4602;DHT22;2313;48.552;9.370;2022-07-12T00:13:45;14.90;99.90
4602;DHT22;2313;48.552;9.370;2022-07-12T00:16:10;14.90;99.90
4602;DHT22;2313;48.552;9.370;2022-07-12T00:18:36;14.80;99.90
4602;DHT22;2313;48.552;9.370;2022-07-12T00:21:02;14.70;99.90
4602;DHT22;2313;48.552;9.370;2022-07-12T00:23:28;14.60;99.90
4602;DHT22;2313;48.552;9.370;2022-07-12T00:25:53;14.60;99.90
4602;DHT22;2313;48.552;9.370;2022-07-12T00:28:19;14.70;99.90
4602;DHT22;2313;48.552;9.370;2022-07-12T00:30:45;14.80;99.90
4602;DHT22;2313;48.552;9.370;2022-07-12T00:33:10;14.90;99.90
4602;DHT22;2313;48.552;9.370;2022-07-12T00:35:36;14.90;99.90
4602;DHT22;2313;48.552;9.370;2022-07-12T00:38:02;14.90;99.90
4602;DHT22;2313;48.552;9.370;2022-07-12T00:40:27;14.80;99.90
4602;DHT22;2313;48.552;9.370;2022-07-12T00:42:53;14.70;99.90
4602;DHT22;2313;48.552;9.370;2022-07-12T00:45:19;14.70;99.90
4602;DHT22;2313;48.552;9.370;2022-07-12T00:47:46;14.70;99.90
4602;DHT22;2313;48.552;9.370;2022-07-12T00:50:20;14.70;99.90
4602;DHT22;2313;48.552;9.370;2022-07-12T00:52:48;14.60;99.90
4602;DHT22;2313;48.552;9.370;2022-07-12T00:55:14;14.60;99.90
4602;DHT22;2313;48.552;9.370;2022-07-12T00:57:40;14.70;99.90
4602;DHT22;2313;48.552;9.370;2022-07-12T01:00:10;14.70;99.90
4602;DHT22;2313;48.552;9.370;2022-07-12T01:02:37;14.70;99.90
4602;DHT22;2313;48.552;9.370;2022-07-12T01:05:07;14.70;99.90
4602;DHT22;2313;48.552;9.370;2022-07-12T01:07:34;14.70;99.90
4602;DHT22;2313;48.552;9.370;2022-07-12T01:10:00;14.60;99.90
4602;DHT22;2313;48.552;9.370;2022-07-12T01:12:27;14.60;99.90
4602;DHT22;2313;48.552;9.370;2022-07-12T01:14:53;14.60;99.90
4602;DHT22;2313;48.552;9.370;2022-07-12T01:17:23;14.50;99.90
4602;DHT22;2313;48.552;9.370;2022-07-12T01:19:54;14.50;99.90
4602;DHT22;2313;48.552;9.370;2022-07-12T01:22:30;14.50;99.90
4602;DHT22;2313;48.552;9.370;2022-07-12T01:24:56;14.40;99.90
4602;DHT22;2313;48.552;9.370;2022-07-12T01:27:22;14.40;99.90
4602;DHT22;2313;48.552;9.370;2022-07-12T01:29:48;14.40;99.90
4602;DHT22;2313;48.552;9.370;2022-07-12T01:32:14;14.40;99.90
4602;DHT22;2313;48.552;9.370;2022-07-12T01:35:00;14.40;99.90
4602;DHT22;2313;48.552;9.370;2022-07-12T01:37:36;14.40;99.90
4602;DHT22;2313;48.552;9.370;2022-07-12T01:40:05;14.40;99.90
4602;DHT22;2313;48.552;9.370;2022-07-12T01:42:31;14.30;99.90
4602;DHT22;2313;48.552;9.370;2022-07-12T01:44:58;14.10;99.90
4602;DHT22;2313;48.552;9.370;2022-07-12T01:47:26;14.10;99.90
4602;DHT22;2313;48.552;9.370;2022-07-12T01:49:52;14.10;99.90
4602;DHT22;2313;48.552;9.370;2022-07-12T01:52:19;13.90;99.90
4602;DHT22;2313;48.552;9.370;2022-07-12T01:54:45;13.70;99.90
4602;DHT22;2313;48.552;9.370;2022-07-12T01:57:11;13.80;99.90
4602;DHT22;2313;48.552;9.370;2022-07-12T01:59:39;13.80;99.90
4602;DHT22;2313;48.552;9.370;2022-07-12T02:02:05;13.90;99.90
4602;DHT22;2313;48.552;9.370;2022-07-12T02:04:31;13.70;99.90
4602;DHT22;2313;48.552;9.370;2022-07-12T02:06:57;13.70;99.90
4602;DHT22;2313;48.552;9.370;2022-07-12T02:09:23;13.60;99.90
4602;DHT22;2313;48.552;9.370;2022-07-12T02:11:49;13.30;99.90
4602;DHT22;2313;48.552;9.370;2022-07-12T02:14:16;13.10;99.90
4602;DHT22;2313;48.552;9.370;2022-07-12T02:16:42;13.10;99.90
4602;DHT22;2313;48.552;9.370;2022-07-12T02:19:10;13.10;99.90
4602;DHT22;2313;48.552;9.370;2022-07-12T02:21:36;13.20;99.90
4602;DHT22;2313;48.552;9.370;2022-07-12T02:24:02;13.40;99.90
4602;DHT22;2313;48.552;9.370;2022-07-12T02:26:28;13.40;99.90
4602;DHT22;2313;48.552;9.370;2022-07-12T02:28:54;13.40;99.90
4602;DHT22;2313;48.552;9.370;2022-07-12T02:31:20;13.50;99.90
4602;DHT22;2313;48.552;9.370;2022-07-12T02:33:45;13.70;99.90
4602;DHT22;2313;48.552;9.370;2022-07-12T02:36:11;13.60;99.90
4602;DHT22;2313;48.552;9.370;2022-07-12T02:38:37;13.70;99.90
4602;DHT22;2313;48.552;9.370;2022-07-12T02:41:02;13.70;99.90
4602;DHT22;2313;48.552;9.370;2022-07-12T02:43:31;13.50;99.90
4602;DHT22;2313;48.552;9.370;2022-07-12T02:46:05;13.40;99.90
4602;DHT22;2313;48.552;9.370;2022-07-12T02:48:31;13.40;99.90
4602;DHT22;2313;48.552;9.370;2022-07-12T02:50:56;13.50;99.90
4602;DHT22;2313;48.552;9.370;2022-07-12T02:53:22;13.50;99.90
4602;DHT22;2313;48.552;9.370;2022-07-12T02:55:48;13.60;99.90
4602;DHT22;2313;48.552;9.370;2022-07-12T02:58:14;13.70;99.90
4602;DHT22;2313;48.552;9.370;2022-07-12T03:00:40;13.70;99.90
4602;DHT22;2313;48.552;9.370;2022-07-12T03:03:07;13.70;99.90
4602;DHT22;2313;48.552;9.370;2022-07-12T03:05:36;13.70;99.90
4602;DHT22;2313;48.552;9.370;2022-07-12T03:08:06;13.60;99.90
4602;DHT22;2313;48.552;9.370;2022-07-12T03:10:32;13.60;99.90
4602;DHT22;2313;48.552;9.370;2022-07-12T03:12:57;13.60;99.90
4602;DHT22;2313;48.552;9.370;2022-07-12T03:15:23;13.70;99.90
4602;DHT22;2313;48.552;9.370;2022-07-12T03:17:49;13.60;99.90
4602;DHT22;2313;48.552;9.370;2022-07-12T03:20:14;13.60;99.90
4602;DHT22;2313;48.552;9.370;2022-07-12T03:22:41;13.60;99.90
4602;DHT22;2313;48.552;9.370;2022-07-12T03:25:07;13.70;99.90
4602;DHT22;2313;48.552;9.370;2022-07-12T03:27:33;13.70;99.90
4602;DHT22;2313;48.552;9.370;2022-07-12T03:29:59;13.60;99.90
4602;DHT22;2313;48.552;9.370;2022-07-12T03:32:25;13.70;99.90
4602;DHT22;2313;48.552;9.370;2022-07-12T03:34:51;13.70;99.90
4602;DHT22;2313;48.552;9.370;2022-07-12T03:37:16;13.70;99.90
4602;DHT22;2313;48.552;9.370;2022-07-12T03:39:42;13.60;99.90
4602;DHT22;2313;48.552;9.370;2022-07-12T03:42:08;13.60;99.90
4602;DHT22;2313;48.552;9.370;2022-07-12T03:44:33;13.70;99.90
4602;DHT22;2313;48.552;9.370;2022-07-12T03:46:59;13.70;99.90
4602;DHT22;2313;48.552;9.370;2022-07-12T03:49:25;13.70;99.90
4602;DHT22;2313;48.552;9.370;2022-07-12T03:51:51;13.70;99.90
4602;DHT22;2313;48.552;9.370;2022-07-12T03:54:16;13.70;99.90
4602;DHT22;2313;48.552;9.370;2022-07-12T03:56:42;13.80;99.90
4602;DHT22;2313;48.552;9.370;2022-07-12T03:59:26;13.80;99.90
4602;DHT22;2313;48.552;9.370;2022-07-12T04:01:52;13.80;99.90
4602;DHT22;2313;48.552;9.370;2022-07-12T04:04:18;13.80;99.90
4602;DHT22;2313;48.552;9.370;2022-07-12T04:06:44;13.80;99.90
4602;DHT22;2313;48.552;9.370;2022-07-12T04:09:09;13.80;99.90
4602;DHT22;2313;48.552;9.370;2022-07-12T04:11:35;13.90;99.90
4602;DHT22;2313;48.552;9.370;2022-07-12T04:14:01;14.00;99.90
4602;DHT22;2313;48.552;9.370;2022-07-12T04:16:26;14.00;99.90
4602;DHT22;2313;48.552;9.370;2022-07-12T04:18:53;14.10;99.90
4602;DHT22;2313;48.552;9.370;2022-07-12T04:21:19;14.20;99.90
4602;DHT22;2313;48.552;9.370;2022-07-12T04:23:45;14.30;99.90
4602;DHT22;2313;48.552;9.370;2022-07-12T04:26:10;14.30;99.90
4602;DHT22;2313;48.552;9.370;2022-07-12T04:28:36;14.40;99.90
4602;DHT22;2313;48.552;9.370;2022-07-12T04:31:02;14.40;99.90
4602;DHT22;2313;48.552;9.370;2022-07-12T04:33:28;14.40;99.90
4602;DHT22;2313;48.552;9.370;2022-07-12T04:35:54;14.40;99.90
4602;DHT22;2313;48.552;9.370;2022-07-12T04:38:20;14.50;99.90
4602;DHT22;2313;48.552;9.370;2022-07-12T04:40:46;14.50;99.90
4602;DHT22;2313;48.552;9.370;2022-07-12T04:43:11;14.60;99.90
4602;DHT22;2313;48.552;9.370;2022-07-12T04:45:37;14.60;99.90
4602;DHT22;2313;48.552;9.370;2022-07-12T04:48:03;14.70;99.90
4602;DHT22;2313;48.552;9.370;2022-07-12T04:50:29;14.80;99.90
4602;DHT22;2313;48.552;9.370;2022-07-12T04:52:54;14.90;99.90
4602;DHT22;2313;48.552;9.370;2022-07-12T04:55:20;15.10;99.90
4602;DHT22;2313;48.552;9.370;2022-07-12T04:57:45;15.00;99.90
4602;DHT22;2313;48.552;9.370;2022-07-12T05:00:11;15.00;99.90
4602;DHT22;2313;48.552;9.370;2022-07-12T05:02:37;15.10;99.90
4602;DHT22;2313;48.552;9.370;2022-07-12T05:05:03;15.20;99.90
4602;DHT22;2313;48.552;9.370;2022-07-12T05:07:28;15.30;99.90
4602;DHT22;2313;48.552;9.370;2022-07-12T05:09:54;15.30;99.90
4602;DHT22;2313;48.552;9.370;2022-07-12T05:12:20;15.40;99.90
4602;DHT22;2313;48.552;9.370;2022-07-12T05:14:46;15.40;99.90
4602;DHT22;2313;48.552;9.370;2022-07-12T05:17:12;15.40;99.90
4602;DHT22;2313;48.552;9.370;2022-07-12T05:19:38;15.50;99.90
4602;DHT22;2313;48.552;9.370;2022-07-12T05:22:04;15.50;99.90
4602;DHT22;2313;48.552;9.370;2022-07-12T05:24:30;15.60;99.90
4602;DHT22;2313;48.552;9.370;2022-07-12T05:26:55;15.60;99.90
4602;DHT22;2313;48.552;9.370;2022-07-12T05:29:21;15.80;99.90
4602;DHT22;2313;48.552;9.370;2022-07-12T05:31:47;15.90;99.90
4602;DHT22;2313;48.552;9.370;2022-07-12T05:34:13;16.00;99.90
4602;DHT22;2313;48.552;9.370;2022-07-12T05:36:39;16.10;99.90
4602;DHT22;2313;48.552;9.370;2022-07-12T05:39:05;16.20;99.90
4602;DHT22;2313;48.552;9.370;2022-07-12T05:41:31;16.20;99.90
4602;DHT22;2313;48.552;9.370;2022-07-12T05:43:56;16.30;99.90
4602;DHT22;2313;48.552;9.370;2022-07-12T05:46:22;16.50;99.90
4602;DHT22;2313;48.552;9.370;2022-07-12T05:48:48;16.50;99.90
4602;DHT22;2313;48.552;9.370;2022-07-12T05:51:13;16.60;99.90
4602;DHT22;2313;48.552;9.370;2022-07-12T05:53:57;16.60;99.90
4602;DHT22;2313;48.552;9.370;2022-07-12T05:56:23;16.70;99.90
4602;DHT22;2313;48.552;9.370;2022-07-12T05:58:49;16.80;99.90
4602;DHT22;2313;48.552;9.370;2022-07-12T06:01:16;16.90;99.90
4602;DHT22;2313;48.552;9.370;2022-07-12T06:03:42;17.10;99.90
4602;DHT22;2313;48.552;9.370;2022-07-12T06:06:08;17.20;99.90
4602;DHT22;2313;48.552;9.370;2022-07-12T06:08:34;17.30;99.90
4602;DHT22;2313;48.552;9.370;2022-07-12T06:10:59;17.30;99.90
4602;DHT22;2313;48.552;9.370;2022-07-12T06:13:25;17.40;99.90
4602;DHT22;2313;48.552;9.370;2022-07-12T06:15:51;17.50;99.90
4602;DHT22;2313;48.552;9.370;2022-07-12T06:18:17;17.60;99.90
4602;DHT22;2313;48.552;9.370;2022-07-12T06:20:43;17.60;99.90
4602;DHT22;2313;48.552;9.370;2022-07-12T06:23:08;17.80;99.90
4602;DHT22;2313;48.552;9.370;2022-07-12T06:25:34;17.90;99.90
4602;DHT22;2313;48.552;9.370;2022-07-12T06:28:01;18.10;99.90
4602;DHT22;2313;48.552;9.370;2022-07-12T06:30:26;18.20;99.90
4602;DHT22;2313;48.552;9.370;2022-07-12T06:32:52;18.20;99.90
4602;DHT22;2313;48.552;9.370;2022-07-12T06:35:18;18.30;99.90
4602;DHT22;2313;48.552;9.370;2022-07-12T06:37:44;18.20;99.90
4602;DHT22;2313;48.552;9.370;2022-07-12T06:40:10;18.20;99.90
4602;DHT22;2313;48.552;9.370;2022-07-12T06:42:36;18.20;99.90
4602;DHT22;2313;48.552;9.370;2022-07-12T06:45:03;18.20;99.90
4602;DHT22;2313;48.552;9.370;2022-07-12T06:47:29;18.20;99.90
4602;DHT22;2313;48.552;9.370;2022-07-12T06:49:54;18.20;99.90
4602;DHT22;2313;48.552;9.370;2022-07-12T06:52:20;18.30;99.90
4602;DHT22;2313;48.552;9.370;2022-07-12T06:54:46;18.30;99.90
4602;DHT22;2313;48.552;9.370;2022-07-12T06:57:12;18.30;99.90
4602;DHT22;2313;48.552;9.370;2022-07-12T06:59:37;18.40;99.90
4602;DHT22;2313;48.552;9.370;2022-07-12T07:02:03;18.40;99.90
4602;DHT22;2313;48.552;9.370;2022-07-12T07:04:29;18.60;99.90
4602;DHT22;2313;48.552;9.370;2022-07-12T07:06:55;18.80;99.90
4602;DHT22;2313;48.552;9.370;2022-07-12T07:09:21;18.90;99.90
4602;DHT22;2313;48.552;9.370;2022-07-12T07:11:46;19.20;99.90
4602;DHT22;2313;48.552;9.370;2022-07-12T07:14:12;19.20;99.90
4602;DHT22;2313;48.552;9.370;2022-07-12T07:16:37;19.20;99.90
4602;DHT22;2313;48.552;9.370;2022-07-12T07:19:03;19.20;99.90
4602;DHT22;2313;48.552;9.370;2022-07-12T07:21:29;19.30;99.90
4602;DHT22;2313;48.552;9.370;2022-07-12T07:23:55;19.40;99.90
4602;DHT22;2313;48.552;9.370;2022-07-12T07:26:21;19.40;99.90
4602;DHT22;2313;48.552;9.370;2022-07-12T07:28:47;19.60;99.90
4602;DHT22;2313;48.552;9.370;2022-07-12T07:31:40;19.50;99.90
4602;DHT22;2313;48.552;9.370;2022-07-12T07:34:07;19.50;99.90
4602;DHT22;2313;48.552;9.370;2022-07-12T07:36:32;19.60;99.90
4602;DHT22;2313;48.552;9.370;2022-07-12T07:38:58;19.70;99.90
4602;DHT22;2313;48.552;9.370;2022-07-12T07:41:24;19.70;99.90
4602;DHT22;2313;48.552;9.370;2022-07-12T07:43:50;19.70;99.90
4602;DHT22;2313;48.552;9.370;2022-07-12T07:46:16;19.90;99.90
4602;DHT22;2313;48.552;9.370;2022-07-12T07:48:42;20.10;99.90
4602;DHT22;2313;48.552;9.370;2022-07-12T07:51:08;20.10;99.90
4602;DHT22;2313;48.552;9.370;2022-07-12T07:53:33;20.20;99.90
4602;DHT22;2313;48.552;9.370;2022-07-12T07:55:59;20.30;99.90
4602;DHT22;2313;48.552;9.370;2022-07-12T07:58:25;20.40;99.90
4602;DHT22;2313;48.552;9.370;2022-07-12T08:00:51;20.60;99.90
4602;DHT22;2313;48.552;9.370;2022-07-12T08:03:21;20.70;99.90
4602;DHT22;2313;48.552;9.370;2022-07-12T08:05:47;20.80;99.90
4602;DHT22;2313;48.552;9.370;2022-07-12T08:08:13;20.90;99.90
4602;DHT22;2313;48.552;9.370;2022-07-12T08:10:39;20.90;99.90
4602;DHT22;2313;48.552;9.370;2022-07-12T08:13:05;21.00;99.90
4602;DHT22;2313;48.552;9.370;2022-07-12T08:15:31;21.10;99.90
4602;DHT22;2313;48.552;9.370;2022-07-12T08:17:57;21.20;99.90
4602;DHT22;2313;48.552;9.370;2022-07-12T08:20:23;21.30;99.90
4602;DHT22;2313;48.552;9.370;2022-07-12T08:22:49;21.50;99.90
4602;DHT22;2313;48.552;9.370;2022-07-12T08:25:15;21.70;99.90
4602;DHT22;2313;48.552;9.370;2022-07-12T08:27:41;21.80;99.90
4602;DHT22;2313;48.552;9.370;2022-07-12T08:30:07;21.90;99.90
4602;DHT22;2313;48.552;9.370;2022-07-12T08:32:33;21.90;99.90
4602;DHT22;2313;48.552;9.370;2022-07-12T08:34:59;21.90;99.90
4602;DHT22;2313;48.552;9.370;2022-07-12T08:37:25;22.10;99.90
4602;DHT22;2313;48.552;9.370;2022-07-12T08:39:51;22.20;99.90
4602;DHT22;2313;48.552;9.370;2022-07-12T08:42:17;22.20;99.90
4602;DHT22;2313;48.552;9.370;2022-07-12T08:44:44;22.30;99.90
4602;DHT22;2313;48.552;9.370;2022-07-12T08:47:10;22.50;99.90
4602;DHT22;2313;48.552;9.370;2022-07-12T08:49:37;22.50;99.90
4602;DHT22;2313;48.552;9.370;2022-07-12T08:52:26;22.80;99.90
4602;DHT22;2313;48.552;9.370;2022-07-12T08:54:52;23.00;99.90
4602;DHT22;2313;48.552;9.370;2022-07-12T08:57:38;23.20;99.90
4602;DHT22;2313;48.552;9.370;2022-07-12T09:00:05;23.30;99.90
4602;DHT22;2313;48.552;9.370;2022-07-12T09:02:49;23.40;99.90
4602;DHT22;2313;48.552;9.370;2022-07-12T09:05:17;23.60;99.90
4602;DHT22;2313;48.552;9.370;2022-07-12T09:07:43;23.70;98.90
4602;DHT22;2313;48.552;9.370;2022-07-12T09:10:10;24.00;99.10
4602;DHT22;2313;48.552;9.370;2022-07-12T09:12:37;24.30;98.10
4602;DHT22;2313;48.552;9.370;2022-07-12T09:15:17;24.30;96.40
4602;DHT22;2313;48.552;9.370;2022-07-12T09:17:59;24.00;95.70
4602;DHT22;2313;48.552;9.370;2022-07-12T09:20:36;24.30;95.90
4602;DHT22;2313;48.552;9.370;2022-07-12T09:23:06;24.60;95.30
4602;DHT22;2313;48.552;9.370;2022-07-12T09:25:32;25.10;94.50
4602;DHT22;2313;48.552;9.370;2022-07-12T09:27:59;25.40;94.10
4602;DHT22;2313;48.552;9.370;2022-07-12T09:30:27;25.20;93.80
4602;DHT22;2313;48.552;9.370;2022-07-12T09:33:05;25.30;92.10
4602;DHT22;2313;48.552;9.370;2022-07-12T09:38:33;26.00;91.10
4602;DHT22;2313;48.552;9.370;2022-07-12T09:41:00;26.30;90.10
4602;DHT22;2313;48.552;9.370;2022-07-12T09:43:27;26.60;88.50
4602;DHT22;2313;48.552;9.370;2022-07-12T09:45:53;26.70;86.80
4602;DHT22;2313;48.552;9.370;2022-07-12T09:48:20;27.00;86.00
4602;DHT22;2313;48.552;9.370;2022-07-12T09:50:52;27.10;82.90
4602;DHT22;2313;48.552;9.370;2022-07-12T09:53:27;27.40;82.40
4602;DHT22;2313;48.552;9.370;2022-07-12T09:55:53;27.60;81.60
4602;DHT22;2313;48.552;9.370;2022-07-12T09:58:31;27.10;82.10
4602;DHT22;2313;48.552;9.370;2022-07-12T10:01:01;26.60;85.20
4602;DHT22;2313;48.552;9.370;2022-07-12T10:03:29;26.40;85.10
4602;DHT22;2313;48.552;9.370;2022-07-12T10:06:00;26.30;86.00
4602;DHT22;2313;48.552;9.370;2022-07-12T10:08:25;26.30;87.50
4602;DHT22;2313;48.552;9.370;2022-07-12T10:10:51;26.30;89.20
4602;DHT22;2313;48.552;9.370;2022-07-12T10:13:18;26.00;87.90
4602;DHT22;2313;48.552;9.370;2022-07-12T10:15:46;26.30;88.60
4602;DHT22;2313;48.552;9.370;2022-07-12T10:18:17;26.40;88.10
4602;DHT22;2313;48.552;9.370;2022-07-12T10:20:43;26.00;87.80
4602;DHT22;2313;48.552;9.370;2022-07-12T10:25:42;26.30;87.50
4602;DHT22;2313;48.552;9.370;2022-07-12T10:28:07;26.90;89.50
4602;DHT22;2313;48.552;9.370;2022-07-12T10:30:44;27.30;86.90
4602;DHT22;2313;48.552;9.370;2022-07-12T10:33:21;27.30;83.90
4602;DHT22;2313;48.552;9.370;2022-07-12T10:36:05;27.10;83.50
4602;DHT22;2313;48.552;9.370;2022-07-12T10:38:33;26.70;85.90
4602;DHT22;2313;48.552;9.370;2022-07-12T10:41:20;27.00;87.60
4602;DHT22;2313;48.552;9.370;2022-07-12T10:43:46;27.50;83.10
4602;DHT22;2313;48.552;9.370;2022-07-12T10:46:30;27.80;82.10
4602;DHT22;2313;48.552;9.370;2022-07-12T10:49:28;28.30;79.10
4602;DHT22;2313;48.552;9.370;2022-07-12T10:54:38;28.80;76.80
4602;DHT22;2313;48.552;9.370;2022-07-12T10:57:04;28.90;75.70
4602;DHT22;2313;48.552;9.370;2022-07-12T10:59:34;28.90;75.60
4602;DHT22;2313;48.552;9.370;2022-07-12T11:02:00;28.90;75.20
4602;DHT22;2313;48.552;9.370;2022-07-12T11:04:26;28.80;73.90
4602;DHT22;2313;48.552;9.370;2022-07-12T11:06:54;28.80;74.60
4602;DHT22;2313;48.552;9.370;2022-07-12T11:09:22;29.00;73.00
4602;DHT22;2313;48.552;9.370;2022-07-12T11:11:50;29.20;72.40
4602;DHT22;2313;48.552;9.370;2022-07-12T11:16:49;29.10;69.10
4602;DHT22;2313;48.552;9.370;2022-07-12T11:19:15;28.70;71.00
4602;DHT22;2313;48.552;9.370;2022-07-12T11:21:45;28.10;74.50
4602;DHT22;2313;48.552;9.370;2022-07-12T11:24:18;28.40;76.80
4602;DHT22;2313;48.552;9.370;2022-07-12T11:26:45;28.70;75.20
4602;DHT22;2313;48.552;9.370;2022-07-12T11:29:12;28.90;73.20
4602;DHT22;2313;48.552;9.370;2022-07-12T11:31:37;28.90;73.80
4602;DHT22;2313;48.552;9.370;2022-07-12T11:34:03;28.80;74.40
4602;DHT22;2313;48.552;9.370;2022-07-12T11:36:29;28.80;73.80
4602;DHT22;2313;48.552;9.370;2022-07-12T11:38:56;28.90;74.50
4602;DHT22;2313;48.552;9.370;2022-07-12T11:41:21;29.20;72.90
4602;DHT22;2313;48.552;9.370;2022-07-12T11:43:48;29.30;71.10
4602;DHT22;2313;48.552;9.370;2022-07-12T11:46:15;29.20;71.00
4602;DHT22;2313;48.552;9.370;2022-07-12T11:48:42;29.20;71.80
4602;DHT22;2313;48.552;9.370;2022-07-12T11:51:12;29.40;69.20
4602;DHT22;2313;48.552;9.370;2022-07-12T11:53:39;29.40;67.60
4602;DHT22;2313;48.552;9.370;2022-07-12T11:56:07;29.30;67.60
4602;DHT22;2313;48.552;9.370;2022-07-12T11:58:33;29.20;67.50
4602;DHT22;2313;48.552;9.370;2022-07-12T12:01:03;28.60;71.30
4602;DHT22;2313;48.552;9.370;2022-07-12T12:03:28;29.00;71.30
4602;DHT22;2313;48.552;9.370;2022-07-12T12:05:55;29.00;72.70
4602;DHT22;2313;48.552;9.370;2022-07-12T12:08:22;29.60;70.30
4602;DHT22;2313;48.552;9.370;2022-07-12T12:13:21;29.50;69.90
4602;DHT22;2313;48.552;9.370;2022-07-12T12:15:52;29.60;69.40
4602;DHT22;2313;48.552;9.370;2022-07-12T12:18:28;29.70;68.90
4602;DHT22;2313;48.552;9.370;2022-07-12T12:21:00;29.70;67.20
4602;DHT22;2313;48.552;9.370;2022-07-12T12:23:26;29.80;66.60
4602;DHT22;2313;48.552;9.370;2022-07-12T12:25:52;29.90;68.60
4602;DHT22;2313;48.552;9.370;2022-07-12T12:28:18;29.90;67.50
4602;DHT22;2313;48.552;9.370;2022-07-12T12:30:55;29.90;66.30
4602;DHT22;2313;48.552;9.370;2022-07-12T12:33:37;29.40;67.20
4602;DHT22;2313;48.552;9.370;2022-07-12T12:36:16;29.60;69.20
4602;DHT22;2313;48.552;9.370;2022-07-12T12:38:43;29.50;67.40
4602;DHT22;2313;48.552;9.370;2022-07-12T12:41:10;29.70;67.20
4602;DHT22;2313;48.552;9.370;2022-07-12T12:43:36;29.90;65.50
4602;DHT22;2313;48.552;9.370;2022-07-12T12:46:02;30.00;65.40
4602;DHT22;2313;48.552;9.370;2022-07-12T12:48:29;30.00;65.10
4602;DHT22;2313;48.552;9.370;2022-07-12T12:51:09;30.00;64.20
4602;DHT22;2313;48.552;9.370;2022-07-12T12:53:36;29.90;63.00
4602;DHT22;2313;48.552;9.370;2022-07-12T12:56:07;29.70;65.30
4602;DHT22;2313;48.552;9.370;2022-07-12T12:58:34;28.70;64.00
4602;DHT22;2313;48.552;9.370;2022-07-12T13:01:00;29.20;65.80
4602;DHT22;2313;48.552;9.370;2022-07-12T13:03:26;29.60;65.10
4602;DHT22;2313;48.552;9.370;2022-07-12T13:05:52;29.70;62.90
4602;DHT22;2313;48.552;9.370;2022-07-12T13:08:18;29.30;64.00
4602;DHT22;2313;48.552;9.370;2022-07-12T13:10:45;29.40;64.00
4602;DHT22;2313;48.552;9.370;2022-07-12T13:13:11;29.70;63.90
4602;DHT22;2313;48.552;9.370;2022-07-12T13:15:38;29.70;63.20
4602;DHT22;2313;48.552;9.370;2022-07-12T13:18:05;30.00;63.30
4602;DHT22;2313;48.552;9.370;2022-07-12T13:20:31;30.00;63.00
4602;DHT22;2313;48.552;9.370;2022-07-12T13:22:58;30.00;63.30
4602;DHT22;2313;48.552;9.370;2022-07-12T13:25:24;30.20;64.70
4602;DHT22;2313;48.552;9.370;2022-07-12T13:27:51;29.90;64.70
4602;DHT22;2313;48.552;9.370;2022-07-12T13:30:18;29.70;64.40
4602;DHT22;2313;48.552;9.370;2022-07-12T13:32:44;29.50;63.50
4602;DHT22;2313;48.552;9.370;2022-07-12T13:35:11;29.60;64.50
4602;DHT22;2313;48.552;9.370;2022-07-12T13:37:39;29.60;64.10
4602;DHT22;2313;48.552;9.370;2022-07-12T13:40:05;29.60;64.40
4602;DHT22;2313;48.552;9.370;2022-07-12T13:45:03;29.30;65.20
4602;DHT22;2313;48.552;9.370;2022-07-12T13:47:29;29.20;64.90
4602;DHT22;2313;48.552;9.370;2022-07-12T13:49:55;29.30;65.40
4602;DHT22;2313;48.552;9.370;2022-07-12T13:52:20;29.60;66.00
4602;DHT22;2313;48.552;9.370;2022-07-12T13:54:46;29.60;65.30
4602;DHT22;2313;48.552;9.370;2022-07-12T13:57:11;29.50;65.20
4602;DHT22;2313;48.552;9.370;2022-07-12T13:59:37;29.60;64.80
4602;DHT22;2313;48.552;9.370;2022-07-12T14:02:04;29.50;63.90
4602;DHT22;2313;48.552;9.370;2022-07-12T14:04:30;29.60;63.40
4602;DHT22;2313;48.552;9.370;2022-07-12T14:06:56;29.50;63.60
4602;DHT22;2313;48.552;9.370;2022-07-12T14:09:23;29.50;64.40
4602;DHT22;2313;48.552;9.370;2022-07-12T14:11:49;29.30;62.00
4602;DHT22;2313;48.552;9.370;2022-07-12T14:14:14;29.20;63.10
4602;DHT22;2313;48.552;9.370;2022-07-12T14:16:41;29.20;63.60
4602;DHT22;2313;48.552;9.370;2022-07-12T14:19:07;29.10;63.30
4602;DHT22;2313;48.552;9.370;2022-07-12T14:21:32;28.90;63.10
4602;DHT22;2313;48.552;9.370;2022-07-12T14:23:58;29.00;62.80
4602;DHT22;2313;48.552;9.370;2022-07-12T14:26:27;28.90;63.60
4602;DHT22;2313;48.552;9.370;2022-07-12T14:28:53;28.90;63.20
4602;DHT22;2313;48.552;9.370;2022-07-12T14:31:19;28.60;64.00
4602;DHT22;2313;48.552;9.370;2022-07-12T14:33:45;28.70;63.70
4602;DHT22;2313;48.552;9.370;2022-07-12T14:36:10;28.70;64.50
4602;DHT22;2313;48.552;9.370;2022-07-12T14:38:36;28.80;64.50
4602;DHT22;2313;48.552;9.370;2022-07-12T14:41:02;28.80;63.30
4602;DHT22;2313;48.552;9.370;2022-07-12T14:43:28;28.80;63.50
4602;DHT22;2313;48.552;9.370;2022-07-12T14:45:54;28.80;63.60
4602;DHT22;2313;48.552;9.370;2022-07-12T14:48:21;28.70;63.40
4602;DHT22;2313;48.552;9.370;2022-07-12T14:50:46;28.60;63.30
4602;DHT22;2313;48.552;9.370;2022-07-12T14:53:13;28.60;64.10
4602;DHT22;2313;48.552;9.370;2022-07-12T14:55:39;28.70;65.30
4602;DHT22;2313;48.552;9.370;2022-07-12T14:58:05;28.80;65.40
4602;DHT22;2313;48.552;9.370;2022-07-12T15:00:37;28.70;64.90
4602;DHT22;2313;48.552;9.370;2022-07-12T15:03:03;28.30;65.20
4602;DHT22;2313;48.552;9.370;2022-07-12T15:05:28;28.40;65.80
4602;DHT22;2313;48.552;9.370;2022-07-12T15:07:54;28.00;65.90
4602;DHT22;2313;48.552;9.370;2022-07-12T15:10:20;28.10;68.60
4602;DHT22;2313;48.552;9.370;2022-07-12T15:12:46;28.20;65.90
4602;DHT22;2313;48.552;9.370;2022-07-12T15:15:12;28.10;65.50
4602;DHT22;2313;48.552;9.370;2022-07-12T15:17:38;28.10;65.20
4602;DHT22;2313;48.552;9.370;2022-07-12T15:20:04;28.10;65.10
4602;DHT22;2313;48.552;9.370;2022-07-12T15:22:31;28.00;64.70
4602;DHT22;2313;48.552;9.370;2022-07-12T15:24:57;28.00;64.00
4602;DHT22;2313;48.552;9.370;2022-07-12T15:27:23;27.90;65.70
4602;DHT22;2313;48.552;9.370;2022-07-12T15:29:49;27.50;64.20
4602;DHT22;2313;48.552;9.370;2022-07-12T15:32:16;27.50;68.70
4602;DHT22;2313;48.552;9.370;2022-07-12T15:34:42;27.40;66.70
4602;DHT22;2313;48.552;9.370;2022-07-12T15:37:08;27.50;67.10
4602;DHT22;2313;48.552;9.370;2022-07-12T15:39:33;27.50;67.20
4602;DHT22;2313;48.552;9.370;2022-07-12T15:41:59;27.60;66.60
4602;DHT22;2313;48.552;9.370;2022-07-12T15:44:25;27.70;66.90
4602;DHT22;2313;48.552;9.370;2022-07-12T15:46:53;27.70;65.90
4602;DHT22;2313;48.552;9.370;2022-07-12T15:49:19;27.70;65.70
4602;DHT22;2313;48.552;9.370;2022-07-12T15:51:44;27.80;65.40
4602;DHT22;2313;48.552;9.370;2022-07-12T15:54:28;27.70;64.60
4602;DHT22;2313;48.552;9.370;2022-07-12T15:56:54;27.70;64.60
4602;DHT22;2313;48.552;9.370;2022-07-12T15:59:20;27.60;66.00
4602;DHT22;2313;48.552;9.370;2022-07-12T16:01:46;27.60;64.90
4602;DHT22;2313;48.552;9.370;2022-07-12T16:04:13;27.50;66.70
4602;DHT22;2313;48.552;9.370;2022-07-12T16:06:39;27.50;67.20
4602;DHT22;2313;48.552;9.370;2022-07-12T16:09:05;27.60;68.10
4602;DHT22;2313;48.552;9.370;2022-07-12T16:11:31;27.60;66.40
4602;DHT22;2313;48.552;9.370;2022-07-12T16:13:57;27.50;66.10
4602;DHT22;2313;48.552;9.370;2022-07-12T16:16:23;27.40;65.10
4602;DHT22;2313;48.552;9.370;2022-07-12T16:18:49;27.40;64.80